sensor_id;sensor_type;location;lat;lon;timestamp;temperature;humidity
81140;SHT31;70624;51.978;5.656;2023-10-09T00:02:25;16.0;76.1
81140;SHT31;70624;51.978;5.656;2023-10-09T00:04:55;16.0;75.9
81140;SHT31;70624;51.978;5.656;2023-10-09T00:07:23;16.0;76.2
81140;SHT31;70624;51.978;5.656;2023-10-09T00:09:52;16.0;76.5
81140;SHT31;70624;51.978;5.656;2023-10-09T00:12:21;16.0;76.2
81140;SHT31;70624;51.978;5.656;2023-10-09T00:14:52;16.0;76.5
81140;SHT31;70624;51.978;5.656;2023-10-09T00:17:23;16.0;76.7
81140;SHT31;70624;51.978;5.656;2023-10-09T00:19:57;16.0;76.6
81140;SHT31;70624;51.978;5.656;2023-10-09T00:22:32;16.0;76.5
81140;SHT31;70624;51.978;5.656;2023-10-09T00:25:10;16.0;76.6
81140;SHT31;70624;51.978;5.656;2023-10-09T00:27:40;16.0;76.4
81140;SHT31;70624;51.978;5.656;2023-10-09T00:30:16;16.0;76.5
81140;SHT31;70624;51.978;5.656;2023-10-09T00:32:46;16.0;76.3
81140;SHT31;70624;51.978;5.656;2023-10-09T00:35:24;16.0;76.1
81140;SHT31;70624;51.978;5.656;2023-10-09T00:38:10;16.0;76.1
81140;SHT31;70624;51.978;5.656;2023-10-09T00:40:48;15.9;76.1
81140;SHT31;70624;51.978;5.656;2023-10-09T00:43:23;15.9;76.1
81140;SHT31;70624;51.978;5.656;2023-10-09T00:45:59;15.9;76.0
81140;SHT31;70624;51.978;5.656;2023-10-09T00:48:29;15.9;76.1
81140;SHT31;70624;51.978;5.656;2023-10-09T00:51:04;15.9;76.1
81140;SHT31;70624;51.978;5.656;2023-10-09T00:53:39;15.8;76.1
81140;SHT31;70624;51.978;5.656;2023-10-09T00:56:07;15.8;76.2
81140;SHT31;70624;51.978;5.656;2023-10-09T00:58:44;15.8;76.5
81140;SHT31;70624;51.978;5.656;2023-10-09T01:01:13;15.8;76.7
81140;SHT31;70624;51.978;5.656;2023-10-09T01:03:43;15.8;76.9
81140;SHT31;70624;51.978;5.656;2023-10-09T01:06:12;15.8;77.1
81140;SHT31;70624;51.978;5.656;2023-10-09T01:08:48;15.8;77.3
81140;SHT31;70624;51.978;5.656;2023-10-09T01:11:28;15.8;77.5
81140;SHT31;70624;51.978;5.656;2023-10-09T01:13:57;15.9;77.6
81140;SHT31;70624;51.978;5.656;2023-10-09T01:16:33;15.9;77.6
81140;SHT31;70624;51.978;5.656;2023-10-09T01:19:04;15.9;77.8
81140;SHT31;70624;51.978;5.656;2023-10-09T01:21:39;15.9;77.7
81140;SHT31;70624;51.978;5.656;2023-10-09T01:24:10;16.0;77.7
81140;SHT31;70624;51.978;5.656;2023-10-09T01:26:39;16.0;77.8
81140;SHT31;70624;51.978;5.656;2023-10-09T01:29:11;16.0;77.9
81140;SHT31;70624;51.978;5.656;2023-10-09T01:31:44;16.1;78.1
81140;SHT31;70624;51.978;5.656;2023-10-09T01:34:18;16.1;78.2
81140;SHT31;70624;51.978;5.656;2023-10-09T01:36:50;16.1;78.2
81140;SHT31;70624;51.978;5.656;2023-10-09T01:39:22;16.2;78.3
81140;SHT31;70624;51.978;5.656;2023-10-09T01:41:55;16.2;78.5
81140;SHT31;70624;51.978;5.656;2023-10-09T01:44:28;16.2;78.4
81140;SHT31;70624;51.978;5.656;2023-10-09T01:47:03;16.3;78.4
81140;SHT31;70624;51.978;5.656;2023-10-09T01:49:34;16.3;78.5
81140;SHT31;70624;51.978;5.656;2023-10-09T01:52:04;16.4;78.5
81140;SHT31;70624;51.978;5.656;2023-10-09T01:54:36;16.4;78.6
81140;SHT31;70624;51.978;5.656;2023-10-09T01:57:08;16.4;78.3
81140;SHT31;70624;51.978;5.656;2023-10-09T01:59:41;16.5;78.4
81140;SHT31;70624;51.978;5.656;2023-10-09T02:02:17;16.5;78.4
81140;SHT31;70624;51.978;5.656;2023-10-09T02:05:02;16.6;78.4
81140;SHT31;70624;51.978;5.656;2023-10-09T02:07:36;16.6;78.2
81140;SHT31;70624;51.978;5.656;2023-10-09T02:10:18;16.6;78.2
81140;SHT31;70624;51.978;5.656;2023-10-09T02:12:57;16.7;78.0
81140;SHT31;70624;51.978;5.656;2023-10-09T02:15:26;16.7;77.9
81140;SHT31;70624;51.978;5.656;2023-10-09T02:18:12;16.7;77.9
81140;SHT31;70624;51.978;5.656;2023-10-09T02:20:46;16.7;77.6
81140;SHT31;70624;51.978;5.656;2023-10-09T02:23:21;16.8;77.4
81140;SHT31;70624;51.978;5.656;2023-10-09T02:25:57;16.8;77.4
81140;SHT31;70624;51.978;5.656;2023-10-09T02:28:28;16.8;77.3
81140;SHT31;70624;51.978;5.656;2023-10-09T02:30:59;16.8;77.2
81140;SHT31;70624;51.978;5.656;2023-10-09T02:33:34;16.8;77.3
81140;SHT31;70624;51.978;5.656;2023-10-09T02:36:02;16.8;77.2
81140;SHT31;70624;51.978;5.656;2023-10-09T02:38:33;16.9;77.3
81140;SHT31;70624;51.978;5.656;2023-10-09T02:41:02;16.9;77.2
81140;SHT31;70624;51.978;5.656;2023-10-09T02:43:47;16.9;77.6
81140;SHT31;70624;51.978;5.656;2023-10-09T02:46:18;16.9;77.5
81140;SHT31;70624;51.978;5.656;2023-10-09T02:48:48;16.9;77.7
81140;SHT31;70624;51.978;5.656;2023-10-09T02:51:20;16.9;77.7
81140;SHT31;70624;51.978;5.656;2023-10-09T02:53:57;16.9;78.0
81140;SHT31;70624;51.978;5.656;2023-10-09T02:56:33;16.9;77.8
81140;SHT31;70624;51.978;5.656;2023-10-09T02:59:10;16.9;77.9
81140;SHT31;70624;51.978;5.656;2023-10-09T03:01:40;16.9;78.0
81140;SHT31;70624;51.978;5.656;2023-10-09T03:04:09;16.9;77.9
81140;SHT31;70624;51.978;5.656;2023-10-09T03:06:41;16.9;77.7
81140;SHT31;70624;51.978;5.656;2023-10-09T03:09:16;17.0;77.8
81140;SHT31;70624;51.978;5.656;2023-10-09T03:11:47;17.0;77.7
81140;SHT31;70624;51.978;5.656;2023-10-09T03:14:22;17.0;77.9
81140;SHT31;70624;51.978;5.656;2023-10-09T03:16:52;17.0;77.8
81140;SHT31;70624;51.978;5.656;2023-10-09T03:19:22;17.0;77.6
81140;SHT31;70624;51.978;5.656;2023-10-09T03:21:51;17.0;77.5
81140;SHT31;70624;51.978;5.656;2023-10-09T03:24:21;17.0;77.5
81140;SHT31;70624;51.978;5.656;2023-10-09T03:26:49;17.0;77.2
81140;SHT31;70624;51.978;5.656;2023-10-09T03:29:22;17.1;77.2
81140;SHT31;70624;51.978;5.656;2023-10-09T03:31:51;17.1;77.2
81140;SHT31;70624;51.978;5.656;2023-10-09T03:34:22;17.1;77.1
81140;SHT31;70624;51.978;5.656;2023-10-09T03:36:50;17.1;77.1
81140;SHT31;70624;51.978;5.656;2023-10-09T03:39:24;17.1;77.1
81140;SHT31;70624;51.978;5.656;2023-10-09T03:42:05;17.1;76.8
81140;SHT31;70624;51.978;5.656;2023-10-09T03:44:38;17.1;76.8
81140;SHT31;70624;51.978;5.656;2023-10-09T03:47:10;17.1;76.6
81140;SHT31;70624;51.978;5.656;2023-10-09T03:49:43;17.1;76.7
81140;SHT31;70624;51.978;5.656;2023-10-09T03:52:11;17.1;76.7
81140;SHT31;70624;51.978;5.656;2023-10-09T03:54:43;17.1;76.5
81140;SHT31;70624;51.978;5.656;2023-10-09T03:57:13;17.1;76.4
81140;SHT31;70624;51.978;5.656;2023-10-09T03:59:44;17.1;76.6
81140;SHT31;70624;51.978;5.656;2023-10-09T04:02:13;17.1;76.8
81140;SHT31;70624;51.978;5.656;2023-10-09T04:04:43;17.1;77.1
81140;SHT31;70624;51.978;5.656;2023-10-09T04:07:13;17.1;77.6
81140;SHT31;70624;51.978;5.656;2023-10-09T04:09:43;17.1;77.9
81140;SHT31;70624;51.978;5.656;2023-10-09T04:12:14;17.1;77.8
81140;SHT31;70624;51.978;5.656;2023-10-09T04:14:51;17.1;78.0
81140;SHT31;70624;51.978;5.656;2023-10-09T04:17:24;17.1;78.3
81140;SHT31;70624;51.978;5.656;2023-10-09T04:20:01;17.1;78.1
81140;SHT31;70624;51.978;5.656;2023-10-09T04:22:46;17.1;77.9
81140;SHT31;70624;51.978;5.656;2023-10-09T04:25:23;17.1;78.2
81140;SHT31;70624;51.978;5.656;2023-10-09T04:27:56;17.2;78.2
81140;SHT31;70624;51.978;5.656;2023-10-09T04:30:30;17.2;78.2
81140;SHT31;70624;51.978;5.656;2023-10-09T04:33:04;17.2;78.2
81140;SHT31;70624;51.978;5.656;2023-10-09T04:35:37;17.2;78.1
81140;SHT31;70624;51.978;5.656;2023-10-09T04:38:07;17.2;78.5
81140;SHT31;70624;51.978;5.656;2023-10-09T04:40:35;17.2;78.4
81140;SHT31;70624;51.978;5.656;2023-10-09T04:43:15;17.2;79.0
81140;SHT31;70624;51.978;5.656;2023-10-09T04:45:48;17.2;79.5
81140;SHT31;70624;51.978;5.656;2023-10-09T04:48:33;17.2;79.5
81140;SHT31;70624;51.978;5.656;2023-10-09T04:51:04;17.2;79.7
81140;SHT31;70624;51.978;5.656;2023-10-09T04:53:59;17.2;79.8
81140;SHT31;70624;51.978;5.656;2023-10-09T04:56:34;17.2;79.6
81140;SHT31;70624;51.978;5.656;2023-10-09T04:59:09;17.2;79.7
81140;SHT31;70624;51.978;5.656;2023-10-09T05:01:43;17.2;79.6
81140;SHT31;70624;51.978;5.656;2023-10-09T05:04:12;17.3;79.8
81140;SHT31;70624;51.978;5.656;2023-10-09T05:06:59;17.3;79.8
81140;SHT31;70624;51.978;5.656;2023-10-09T05:09:32;17.3;79.6
81140;SHT31;70624;51.978;5.656;2023-10-09T05:12:06;17.4;79.8
81140;SHT31;70624;51.978;5.656;2023-10-09T05:14:42;17.4;79.9
81140;SHT31;70624;51.978;5.656;2023-10-09T05:17:15;17.4;79.8
81140;SHT31;70624;51.978;5.656;2023-10-09T05:19:44;17.4;80.0
81140;SHT31;70624;51.978;5.656;2023-10-09T05:23:43;17.5;80.1
81140;SHT31;70624;51.978;5.656;2023-10-09T05:26:15;17.5;80.0
81140;SHT31;70624;51.978;5.656;2023-10-09T05:28:59;17.5;79.9
81140;SHT31;70624;51.978;5.656;2023-10-09T05:31:33;17.6;80.0
81140;SHT31;70624;51.978;5.656;2023-10-09T05:34:18;17.6;79.6
81140;SHT31;70624;51.978;5.656;2023-10-09T05:36:48;17.6;79.6
81140;SHT31;70624;51.978;5.656;2023-10-09T05:39:16;17.7;79.6
81140;SHT31;70624;51.978;5.656;2023-10-09T05:41:48;17.7;79.7
81140;SHT31;70624;51.978;5.656;2023-10-09T05:44:32;17.7;79.6
81140;SHT31;70624;51.978;5.656;2023-10-09T05:47:17;17.7;79.4
81140;SHT31;70624;51.978;5.656;2023-10-09T05:50:01;17.8;79.4
81140;SHT31;70624;51.978;5.656;2023-10-09T05:52:54;17.8;79.3
81140;SHT31;70624;51.978;5.656;2023-10-09T05:55:34;17.8;79.3
81140;SHT31;70624;51.978;5.656;2023-10-09T05:58:56;17.8;78.9
81140;SHT31;70624;51.978;5.656;2023-10-09T06:02:43;17.8;78.9
81140;SHT31;70624;51.978;5.656;2023-10-09T06:05:30;17.9;78.9
81140;SHT31;70624;51.978;5.656;2023-10-09T06:08:13;17.9;78.8
81140;SHT31;70624;51.978;5.656;2023-10-09T06:10:47;17.9;78.8
81140;SHT31;70624;51.978;5.656;2023-10-09T06:13:15;17.9;78.7
81140;SHT31;70624;51.978;5.656;2023-10-09T06:16:04;17.9;78.6
81140;SHT31;70624;51.978;5.656;2023-10-09T06:18:52;18.0;78.5
81140;SHT31;70624;51.978;5.656;2023-10-09T06:21:29;18.0;78.8
81140;SHT31;70624;51.978;5.656;2023-10-09T06:24:36;18.0;78.4
81140;SHT31;70624;51.978;5.656;2023-10-09T06:27:09;18.0;78.7
81140;SHT31;70624;51.978;5.656;2023-10-09T06:29:52;18.0;78.8
81140;SHT31;70624;51.978;5.656;2023-10-09T06:32:28;18.0;78.5
81140;SHT31;70624;51.978;5.656;2023-10-09T06:35:09;18.0;78.7
81140;SHT31;70624;51.978;5.656;2023-10-09T06:37:46;18.0;78.8
81140;SHT31;70624;51.978;5.656;2023-10-09T06:40:32;18.1;78.8
81140;SHT31;70624;51.978;5.656;2023-10-09T06:43:18;18.1;78.8
81140;SHT31;70624;51.978;5.656;2023-10-09T06:45:56;18.1;78.8
81140;SHT31;70624;51.978;5.656;2023-10-09T06:48:31;18.1;78.8
81140;SHT31;70624;51.978;5.656;2023-10-09T06:51:13;18.1;78.8
81140;SHT31;70624;51.978;5.656;2023-10-09T06:53:49;18.1;78.6
81140;SHT31;70624;51.978;5.656;2023-10-09T06:56:33;18.1;78.8
81140;SHT31;70624;51.978;5.656;2023-10-09T06:59:34;18.2;78.7
81140;SHT31;70624;51.978;5.656;2023-10-09T07:02:43;18.2;78.8
81140;SHT31;70624;51.978;5.656;2023-10-09T07:05:14;18.2;78.8
81140;SHT31;70624;51.978;5.656;2023-10-09T07:07:44;18.2;78.9
81140;SHT31;70624;51.978;5.656;2023-10-09T07:10:21;18.2;78.9
81140;SHT31;70624;51.978;5.656;2023-10-09T07:12:59;18.3;78.9
81140;SHT31;70624;51.978;5.656;2023-10-09T07:15:28;18.3;78.9
81140;SHT31;70624;51.978;5.656;2023-10-09T07:18:12;18.3;78.9
81140;SHT31;70624;51.978;5.656;2023-10-09T07:20:49;18.4;78.9
81140;SHT31;70624;51.978;5.656;2023-10-09T07:23:28;18.4;78.9
81140;SHT31;70624;51.978;5.656;2023-10-09T07:26:03;18.4;79.0
81140;SHT31;70624;51.978;5.656;2023-10-09T07:28:50;18.5;78.8
81140;SHT31;70624;51.978;5.656;2023-10-09T07:31:24;18.5;78.8
81140;SHT31;70624;51.978;5.656;2023-10-09T07:33:57;18.5;78.9
81140;SHT31;70624;51.978;5.656;2023-10-09T07:36:26;18.6;78.7
81140;SHT31;70624;51.978;5.656;2023-10-09T07:39:05;18.6;78.7
81140;SHT31;70624;51.978;5.656;2023-10-09T07:41:43;18.6;78.7
81140;SHT31;70624;51.978;5.656;2023-10-09T07:44:28;18.7;78.4
81140;SHT31;70624;51.978;5.656;2023-10-09T07:47:07;18.7;78.3
81140;SHT31;70624;51.978;5.656;2023-10-09T07:49:43;18.7;78.5
81140;SHT31;70624;51.978;5.656;2023-10-09T07:52:14;18.7;78.7
81140;SHT31;70624;51.978;5.656;2023-10-09T07:54:43;18.7;78.8
81140;SHT31;70624;51.978;5.656;2023-10-09T07:57:19;18.7;78.9
81140;SHT31;70624;51.978;5.656;2023-10-09T07:59:53;18.8;79.1
81140;SHT31;70624;51.978;5.656;2023-10-09T08:02:35;18.8;79.1
81140;SHT31;70624;51.978;5.656;2023-10-09T08:05:07;18.8;78.9
81140;SHT31;70624;51.978;5.656;2023-10-09T08:07:42;18.9;79.0
81140;SHT31;70624;51.978;5.656;2023-10-09T08:10:15;18.9;79.5
81140;SHT31;70624;51.978;5.656;2023-10-09T08:13:01;19.0;79.3
81140;SHT31;70624;51.978;5.656;2023-10-09T08:15:37;19.1;79.1
81140;SHT31;70624;51.978;5.656;2023-10-09T08:18:17;19.2;78.9
81140;SHT31;70624;51.978;5.656;2023-10-09T08:20:51;19.2;78.3
81140;SHT31;70624;51.978;5.656;2023-10-09T08:23:27;19.3;78.1
81140;SHT31;70624;51.978;5.656;2023-10-09T08:26:03;19.4;78.0
81140;SHT31;70624;51.978;5.656;2023-10-09T08:28:39;19.4;77.7
81140;SHT31;70624;51.978;5.656;2023-10-09T08:31:11;19.5;77.7
81140;SHT31;70624;51.978;5.656;2023-10-09T08:33:52;19.5;77.4
81140;SHT31;70624;51.978;5.656;2023-10-09T08:36:24;19.6;77.6
81140;SHT31;70624;51.978;5.656;2023-10-09T08:38:55;19.6;77.2
81140;SHT31;70624;51.978;5.656;2023-10-09T08:41:25;19.7;77.5
81140;SHT31;70624;51.978;5.656;2023-10-09T08:43:57;19.7;77.6
81140;SHT31;70624;51.978;5.656;2023-10-09T08:46:27;19.8;77.3
81140;SHT31;70624;51.978;5.656;2023-10-09T08:48:57;19.9;77.2
81140;SHT31;70624;51.978;5.656;2023-10-09T08:51:29;19.9;76.6
81140;SHT31;70624;51.978;5.656;2023-10-09T08:54:01;20.0;76.6
81140;SHT31;70624;51.978;5.656;2023-10-09T08:56:31;20.1;76.5
81140;SHT31;70624;51.978;5.656;2023-10-09T08:58:59;20.1;76.7
81140;SHT31;70624;51.978;5.656;2023-10-09T09:01:28;20.2;76.0
81140;SHT31;70624;51.978;5.656;2023-10-09T09:03:58;20.3;75.4
81140;SHT31;70624;51.978;5.656;2023-10-09T09:06:38;20.3;75.3
81140;SHT31;70624;51.978;5.656;2023-10-09T09:09:12;20.4;75.1
81140;SHT31;70624;51.978;5.656;2023-10-09T09:11:43;20.4;74.2
81140;SHT31;70624;51.978;5.656;2023-10-09T09:14:16;20.5;74.1
81140;SHT31;70624;51.978;5.656;2023-10-09T09:16:48;20.5;74.0
81140;SHT31;70624;51.978;5.656;2023-10-09T09:19:18;20.6;74.2
81140;SHT31;70624;51.978;5.656;2023-10-09T09:21:51;20.6;74.1
81140;SHT31;70624;51.978;5.656;2023-10-09T09:24:21;20.7;73.8
81140;SHT31;70624;51.978;5.656;2023-10-09T09:27:01;20.7;73.7
81140;SHT31;70624;51.978;5.656;2023-10-09T09:29:42;20.8;73.3
81140;SHT31;70624;51.978;5.656;2023-10-09T09:32:25;20.8;73.3
81140;SHT31;70624;51.978;5.656;2023-10-09T09:34:56;20.9;73.8
81140;SHT31;70624;51.978;5.656;2023-10-09T09:37:28;20.9;74.6
81140;SHT31;70624;51.978;5.656;2023-10-09T09:40:00;21.0;74.1
81140;SHT31;70624;51.978;5.656;2023-10-09T09:42:37;21.1;73.1
81140;SHT31;70624;51.978;5.656;2023-10-09T09:45:12;21.1;72.9
81140;SHT31;70624;51.978;5.656;2023-10-09T09:47:44;21.2;73.0
81140;SHT31;70624;51.978;5.656;2023-10-09T09:50:18;21.2;72.4
81140;SHT31;70624;51.978;5.656;2023-10-09T09:52:51;21.3;72.4
81140;SHT31;70624;51.978;5.656;2023-10-09T09:55:25;21.4;71.4
81140;SHT31;70624;51.978;5.656;2023-10-09T09:57:57;21.4;70.8
81140;SHT31;70624;51.978;5.656;2023-10-09T10:00:31;21.5;71.1
81140;SHT31;70624;51.978;5.656;2023-10-09T10:03:09;21.5;70.7
81140;SHT31;70624;51.978;5.656;2023-10-09T10:05:41;21.6;70.2
81140;SHT31;70624;51.978;5.656;2023-10-09T10:08:15;21.6;70.4
81140;SHT31;70624;51.978;5.656;2023-10-09T10:10:47;21.7;70.1
81140;SHT31;70624;51.978;5.656;2023-10-09T10:13:55;21.7;69.8
81140;SHT31;70624;51.978;5.656;2023-10-09T10:16:30;21.8;69.6
81140;SHT31;70624;51.978;5.656;2023-10-09T10:19:04;21.9;69.5
81140;SHT31;70624;51.978;5.656;2023-10-09T10:21:40;21.9;69.2
81140;SHT31;70624;51.978;5.656;2023-10-09T10:24:44;22.0;69.2
81140;SHT31;70624;51.978;5.656;2023-10-09T10:27:24;22.0;69.2
81140;SHT31;70624;51.978;5.656;2023-10-09T10:30:28;22.0;68.8
81140;SHT31;70624;51.978;5.656;2023-10-09T10:33:04;22.1;68.5
81140;SHT31;70624;51.978;5.656;2023-10-09T10:35:42;22.1;67.9
81140;SHT31;70624;51.978;5.656;2023-10-09T10:38:29;22.2;67.4
81140;SHT31;70624;51.978;5.656;2023-10-09T10:41:10;22.2;68.2
81140;SHT31;70624;51.978;5.656;2023-10-09T10:43:42;22.2;68.8
81140;SHT31;70624;51.978;5.656;2023-10-09T10:46:25;22.3;67.9
81140;SHT31;70624;51.978;5.656;2023-10-09T10:49:01;22.3;68.0
81140;SHT31;70624;51.978;5.656;2023-10-09T10:51:36;22.4;68.4
81140;SHT31;70624;51.978;5.656;2023-10-09T10:54:07;22.4;67.8
81140;SHT31;70624;51.978;5.656;2023-10-09T10:56:52;22.4;67.0
81140;SHT31;70624;51.978;5.656;2023-10-09T10:59:24;22.5;67.3
81140;SHT31;70624;51.978;5.656;2023-10-09T11:01:53;22.5;67.5
81140;SHT31;70624;51.978;5.656;2023-10-09T11:04:26;22.5;67.2
81140;SHT31;70624;51.978;5.656;2023-10-09T11:07:08;22.6;67.2
81140;SHT31;70624;51.978;5.656;2023-10-09T11:09:46;22.6;66.7
81140;SHT31;70624;51.978;5.656;2023-10-09T11:12:44;22.7;66.9
81140;SHT31;70624;51.978;5.656;2023-10-09T11:15:31;22.7;67.3
81140;SHT31;70624;51.978;5.656;2023-10-09T11:18:08;22.8;66.9
81140;SHT31;70624;51.978;5.656;2023-10-09T11:20:44;22.8;66.9
81140;SHT31;70624;51.978;5.656;2023-10-09T11:23:21;22.9;66.9
81140;SHT31;70624;51.978;5.656;2023-10-09T11:25:55;22.9;66.1
81140;SHT31;70624;51.978;5.656;2023-10-09T11:28:30;22.9;66.5
81140;SHT31;70624;51.978;5.656;2023-10-09T11:31:13;23.0;66.6
81140;SHT31;70624;51.978;5.656;2023-10-09T11:33:47;23.0;66.5
81140;SHT31;70624;51.978;5.656;2023-10-09T11:36:18;23.0;66.0
81140;SHT31;70624;51.978;5.656;2023-10-09T11:38:48;23.1;66.1
81140;SHT31;70624;51.978;5.656;2023-10-09T11:41:19;23.1;65.9
81140;SHT31;70624;51.978;5.656;2023-10-09T11:43:52;23.2;65.8
81140;SHT31;70624;51.978;5.656;2023-10-09T11:46:24;23.2;65.2
81140;SHT31;70624;51.978;5.656;2023-10-09T11:49:10;23.3;64.7
81140;SHT31;70624;51.978;5.656;2023-10-09T11:52:12;23.3;64.0
81140;SHT31;70624;51.978;5.656;2023-10-09T11:56:35;23.4;63.8
81140;SHT31;70624;51.978;5.656;2023-10-09T11:59:03;23.4;63.7
81140;SHT31;70624;51.978;5.656;2023-10-09T12:01:32;23.4;63.2
81140;SHT31;70624;51.978;5.656;2023-10-09T12:04:03;23.4;63.2
81140;SHT31;70624;51.978;5.656;2023-10-09T12:06:35;23.4;63.4
81140;SHT31;70624;51.978;5.656;2023-10-09T12:09:05;23.5;62.6
81140;SHT31;70624;51.978;5.656;2023-10-09T12:11:39;23.5;63.0
81140;SHT31;70624;51.978;5.656;2023-10-09T12:14:07;23.5;62.4
81140;SHT31;70624;51.978;5.656;2023-10-09T12:16:36;23.5;63.0
81140;SHT31;70624;51.978;5.656;2023-10-09T12:19:09;23.5;62.4
81140;SHT31;70624;51.978;5.656;2023-10-09T12:21:38;23.5;62.1
81140;SHT31;70624;51.978;5.656;2023-10-09T12:24:09;23.5;61.5
81140;SHT31;70624;51.978;5.656;2023-10-09T12:26:38;23.5;62.8
81140;SHT31;70624;51.978;5.656;2023-10-09T12:29:09;23.5;62.3
81140;SHT31;70624;51.978;5.656;2023-10-09T12:31:37;23.5;62.0
81140;SHT31;70624;51.978;5.656;2023-10-09T12:34:06;23.5;62.4
81140;SHT31;70624;51.978;5.656;2023-10-09T12:36:36;23.5;61.9
81140;SHT31;70624;51.978;5.656;2023-10-09T12:39:05;23.5;62.2
81140;SHT31;70624;51.978;5.656;2023-10-09T12:41:39;23.5;62.2
81140;SHT31;70624;51.978;5.656;2023-10-09T12:44:08;23.6;62.1
81140;SHT31;70624;51.978;5.656;2023-10-09T12:46:41;23.6;61.9
81140;SHT31;70624;51.978;5.656;2023-10-09T12:49:14;23.6;62.1
81140;SHT31;70624;51.978;5.656;2023-10-09T12:51:43;23.6;62.0
81140;SHT31;70624;51.978;5.656;2023-10-09T12:54:12;23.6;62.2
81140;SHT31;70624;51.978;5.656;2023-10-09T12:56:41;23.6;61.7
81140;SHT31;70624;51.978;5.656;2023-10-09T12:59:14;23.6;62.1
81140;SHT31;70624;51.978;5.656;2023-10-09T13:01:46;23.6;62.3
81140;SHT31;70624;51.978;5.656;2023-10-09T13:04:19;23.6;61.8
81140;SHT31;70624;51.978;5.656;2023-10-09T13:06:50;23.6;62.2
81140;SHT31;70624;51.978;5.656;2023-10-09T13:09:20;23.6;62.2
81140;SHT31;70624;51.978;5.656;2023-10-09T13:11:55;23.6;62.9
81140;SHT31;70624;51.978;5.656;2023-10-09T13:14:26;23.6;62.5
81140;SHT31;70624;51.978;5.656;2023-10-09T13:16:55;23.6;62.6
81140;SHT31;70624;51.978;5.656;2023-10-09T13:19:23;23.6;62.4
81140;SHT31;70624;51.978;5.656;2023-10-09T13:21:52;23.6;62.1
81140;SHT31;70624;51.978;5.656;2023-10-09T13:24:21;23.6;62.4
81140;SHT31;70624;51.978;5.656;2023-10-09T13:26:54;23.6;62.2
81140;SHT31;70624;51.978;5.656;2023-10-09T13:29:25;23.6;62.4
81140;SHT31;70624;51.978;5.656;2023-10-09T13:31:56;23.6;62.0
81140;SHT31;70624;51.978;5.656;2023-10-09T13:34:29;23.6;62.8
81140;SHT31;70624;51.978;5.656;2023-10-09T13:36:59;23.6;62.9
81140;SHT31;70624;51.978;5.656;2023-10-09T13:39:32;23.6;62.6
81140;SHT31;70624;51.978;5.656;2023-10-09T13:42:06;23.6;62.2
81140;SHT31;70624;51.978;5.656;2023-10-09T13:44:36;23.6;63.0
81140;SHT31;70624;51.978;5.656;2023-10-09T13:47:08;23.6;62.7
81140;SHT31;70624;51.978;5.656;2023-10-09T13:49:42;23.6;62.4
81140;SHT31;70624;51.978;5.656;2023-10-09T13:52:10;23.6;62.1
81140;SHT31;70624;51.978;5.656;2023-10-09T13:54:44;23.6;61.8
81140;SHT31;70624;51.978;5.656;2023-10-09T13:57:14;23.6;62.3
81140;SHT31;70624;51.978;5.656;2023-10-09T13:59:43;23.6;63.0
81140;SHT31;70624;51.978;5.656;2023-10-09T14:02:15;23.6;62.4
81140;SHT31;70624;51.978;5.656;2023-10-09T14:04:47;23.5;62.5
81140;SHT31;70624;51.978;5.656;2023-10-09T14:07:17;23.5;62.7
81140;SHT31;70624;51.978;5.656;2023-10-09T14:09:46;23.5;62.2
81140;SHT31;70624;51.978;5.656;2023-10-09T14:12:28;23.5;63.3
81140;SHT31;70624;51.978;5.656;2023-10-09T14:14:58;23.4;63.0
81140;SHT31;70624;51.978;5.656;2023-10-09T14:17:30;23.4;63.0
81140;SHT31;70624;51.978;5.656;2023-10-09T14:19:58;23.4;63.4
81140;SHT31;70624;51.978;5.656;2023-10-09T14:22:33;23.3;62.8
81140;SHT31;70624;51.978;5.656;2023-10-09T14:25:05;23.3;63.1
81140;SHT31;70624;51.978;5.656;2023-10-09T14:27:39;23.2;63.5
81140;SHT31;70624;51.978;5.656;2023-10-09T14:30:08;23.2;63.0
81140;SHT31;70624;51.978;5.656;2023-10-09T14:32:43;23.1;63.1
81140;SHT31;70624;51.978;5.656;2023-10-09T14:35:17;23.1;63.4
81140;SHT31;70624;51.978;5.656;2023-10-09T14:37:50;23.0;63.3
81140;SHT31;70624;51.978;5.656;2023-10-09T14:40:18;23.0;63.8
81140;SHT31;70624;51.978;5.656;2023-10-09T14:42:52;23.0;63.5
81140;SHT31;70624;51.978;5.656;2023-10-09T14:45:21;22.9;63.5
81140;SHT31;70624;51.978;5.656;2023-10-09T14:47:51;22.9;63.5
81140;SHT31;70624;51.978;5.656;2023-10-09T14:50:20;22.9;63.5
81140;SHT31;70624;51.978;5.656;2023-10-09T14:52:50;22.9;64.1
81140;SHT31;70624;51.978;5.656;2023-10-09T14:55:19;22.8;64.8
81140;SHT31;70624;51.978;5.656;2023-10-09T14:57:55;22.8;64.0
81140;SHT31;70624;51.978;5.656;2023-10-09T15:00:25;22.8;64.2
81140;SHT31;70624;51.978;5.656;2023-10-09T15:02:53;22.8;64.2
81140;SHT31;70624;51.978;5.656;2023-10-09T15:05:21;22.8;64.1
81140;SHT31;70624;51.978;5.656;2023-10-09T15:07:52;22.8;64.8
81140;SHT31;70624;51.978;5.656;2023-10-09T15:10:20;22.8;64.5
81140;SHT31;70624;51.978;5.656;2023-10-09T15:12:50;22.8;64.6
81140;SHT31;70624;51.978;5.656;2023-10-09T15:15:20;22.8;64.2
81140;SHT31;70624;51.978;5.656;2023-10-09T15:17:52;22.8;64.8
81140;SHT31;70624;51.978;5.656;2023-10-09T15:20:23;22.8;64.6
81140;SHT31;70624;51.978;5.656;2023-10-09T15:22:51;22.8;64.4
81140;SHT31;70624;51.978;5.656;2023-10-09T15:25:20;22.8;64.8
81140;SHT31;70624;51.978;5.656;2023-10-09T15:27:48;22.8;64.8
81140;SHT31;70624;51.978;5.656;2023-10-09T15:30:17;22.8;65.2
81140;SHT31;70624;51.978;5.656;2023-10-09T15:32:48;22.7;64.5
81140;SHT31;70624;51.978;5.656;2023-10-09T15:35:17;22.7;64.6
81140;SHT31;70624;51.978;5.656;2023-10-09T15:37:47;22.7;65.0
81140;SHT31;70624;51.978;5.656;2023-10-09T15:40:18;22.7;65.2
81140;SHT31;70624;51.978;5.656;2023-10-09T15:42:50;22.6;65.6
81140;SHT31;70624;51.978;5.656;2023-10-09T15:45:22;22.6;65.3
81140;SHT31;70624;51.978;5.656;2023-10-09T15:47:55;22.6;65.5
81140;SHT31;70624;51.978;5.656;2023-10-09T15:50:23;22.6;65.0
81140;SHT31;70624;51.978;5.656;2023-10-09T15:52:54;22.5;65.1
81140;SHT31;70624;51.978;5.656;2023-10-09T15:55:23;22.5;65.0
81140;SHT31;70624;51.978;5.656;2023-10-09T15:57:52;22.5;65.5
81140;SHT31;70624;51.978;5.656;2023-10-09T16:00:22;22.4;65.6
81140;SHT31;70624;51.978;5.656;2023-10-09T16:02:55;22.3;65.9
81140;SHT31;70624;51.978;5.656;2023-10-09T16:05:23;22.3;66.0
81140;SHT31;70624;51.978;5.656;2023-10-09T16:07:54;22.2;66.6
81140;SHT31;70624;51.978;5.656;2023-10-09T16:10:24;22.2;66.8
81140;SHT31;70624;51.978;5.656;2023-10-09T16:12:52;22.1;66.8
81140;SHT31;70624;51.978;5.656;2023-10-09T16:15:24;22.1;67.1
81140;SHT31;70624;51.978;5.656;2023-10-09T16:17:54;22.0;67.9
81140;SHT31;70624;51.978;5.656;2023-10-09T16:20:30;21.9;67.9
81140;SHT31;70624;51.978;5.656;2023-10-09T16:22:59;21.9;68.0
81140;SHT31;70624;51.978;5.656;2023-10-09T16:25:30;21.8;68.2
81140;SHT31;70624;51.978;5.656;2023-10-09T16:28:00;21.7;68.4
81140;SHT31;70624;51.978;5.656;2023-10-09T16:30:29;21.7;68.9
81140;SHT31;70624;51.978;5.656;2023-10-09T16:32:57;21.6;69.3
81140;SHT31;70624;51.978;5.656;2023-10-09T16:35:27;21.6;69.2
81140;SHT31;70624;51.978;5.656;2023-10-09T16:37:55;21.6;69.5
81140;SHT31;70624;51.978;5.656;2023-10-09T16:40:24;21.5;69.9
81140;SHT31;70624;51.978;5.656;2023-10-09T16:42:53;21.5;69.5
81140;SHT31;70624;51.978;5.656;2023-10-09T16:45:21;21.5;69.3
81140;SHT31;70624;51.978;5.656;2023-10-09T16:47:52;21.5;69.5
81140;SHT31;70624;51.978;5.656;2023-10-09T16:50:21;21.5;69.5
81140;SHT31;70624;51.978;5.656;2023-10-09T16:52:54;21.5;69.3